Time;durP1;ratioP1;P1;durP2;ratioP2;P2;SDS_P1;SDS_P2;PMS_P1;PMS_P2;Temp;Humidity;BMP_temperature;BMP_pressure;BME280_temperature;BME280_humidity;BME280_pressure;Samples;Min_cycle;Max_cycle;Signal;HPM_P1;HPM_P2
2022/12/24 00:02:14;;;;;;;;;4.25;3.50;;;;;9.62;86.90;100432.53;5058674;28;10028;-64
2022/12/24 00:04:41;;;;;;;;;3.25;3.25;;;;;9.66;86.54;100455.28;5067628;28;10046;-62
2022/12/24 00:07:07;;;;;;;;;8.00;4.00;;;;;9.68;86.50;100436.25;5060365;28;10006;-63
2022/12/24 00:09:34;;;;;;;;;3.00;3.00;;;;;9.68;86.26;100452.38;5068250;28;9997;-64
2022/12/24 00:12:00;;;;;;;;;6.75;5.00;;;;;9.64;86.61;100443.88;5061061;28;9923;-65
2022/12/24 00:14:27;;;;;;;;;5.00;2.00;;;;;9.71;86.46;100452.81;5067697;28;9908;-64
2022/12/24 00:16:53;;;;;;;;;7.25;5.00;;;;;9.76;85.76;100458.44;5061629;28;10725;-64
2022/12/24 00:19:20;;;;;;;;;9.75;4.00;;;;;9.78;85.87;100458.25;5050834;28;10081;-65
2022/12/24 00:21:46;;;;;;;;;7.00;6.00;;;;;9.79;85.40;100473.34;5055113;28;10021;-64
2022/12/24 00:24:13;;;;;;;;;5.25;4.50;;;;;9.76;85.90;100471.88;5069136;28;10025;-64
2022/12/24 00:26:39;;;;;;;;;7.00;5.00;;;;;9.77;85.41;100468.16;5056201;28;10009;-65
2022/12/24 00:29:05;;;;;;;;;4.00;2.00;;;;;9.80;85.45;100473.16;5066620;28;10097;-64
2022/12/24 00:31:32;;;;;;;;;11.75;6.75;;;;;9.73;85.23;100472.28;5063252;28;10067;-64
2022/12/24 00:33:59;;;;;;;;;11.25;5.75;;;;;9.73;85.38;100479.53;5059598;28;10193;-65
2022/12/24 00:36:25;;;;;;;;;4.00;2.50;;;;;9.80;85.20;100480.38;5069427;28;10011;-66
2022/12/24 00:38:52;;;;;;;;;5.75;3.50;;;;;9.76;85.63;100479.94;5058438;28;10245;-66
2022/12/24 00:41:24;;;;;;;;;5.50;3.00;;;;;9.71;85.20;100476.19;5065322;28;10050;-63
2022/12/24 00:44:05;;;;;;;;;10.00;3.00;;;;;9.74;85.39;100490.06;5060519;28;9997;-66
2022/12/24 00:46:33;;;;;;;;;6.75;6.75;;;;;9.72;85.70;100489.41;5066774;28;10106;-66
2022/12/24 00:49:00;;;;;;;;;5.00;2.25;;;;;9.72;85.40;100489.41;5066090;28;10021;-68
2022/12/24 00:51:27;;;;;;;;;4.00;1.75;;;;;9.73;85.69;100496.47;5070272;28;10056;-67
2022/12/24 00:53:54;;;;;;;;;4.50;4.00;;;;;9.72;85.48;100497.47;5069482;28;9909;-66
2022/12/24 00:56:21;;;;;;;;;8.25;4.00;;;;;9.71;86.05;100506.56;5058255;28;10173;-67
2022/12/24 00:58:48;;;;;;;;;6.50;5.75;;;;;9.70;85.83;100512.97;5069518;28;9997;-67
2022/12/24 01:01:15;;;;;;;;;4.25;3.75;;;;;9.72;85.49;100502.84;5063396;28;9985;-67
2022/12/24 01:03:41;;;;;;;;;3.00;3.00;;;;;9.75;85.52;100509.69;5065789;28;10129;-67
2022/12/24 01:06:11;;;;;;;;;4.75;4.25;;;;;9.76;85.52;100516.72;5068532;28;10137;-67
2022/12/24 01:08:38;;;;;;;;;4.75;4.00;;;;;9.69;85.46;100523.94;5062583;28;10035;-66
2022/12/24 01:11:06;;;;;;;;;6.50;5.00;;;;;9.67;85.54;100534.88;5064388;28;10099;-66
2022/12/24 01:13:33;;;;;;;;;7.25;3.00;;;;;9.64;85.49;100536.13;5069263;28;9974;-67
2022/12/24 01:16:00;;;;;;;;;4.50;4.25;;;;;9.64;85.25;100541.50;5057626;28;9994;-67
2022/12/24 01:18:27;;;;;;;;;4.00;2.00;;;;;9.64;85.53;100544.19;5065417;28;10731;-67
2022/12/24 01:20:59;;;;;;;;;7.50;4.50;;;;;9.57;85.39;100542.47;5070011;28;9994;-68
2022/12/24 01:23:26;;;;;;;;;3.75;3.25;;;;;9.58;85.38;100553.00;5069113;28;10081;-67
2022/12/24 01:25:52;;;;;;;;;6.75;4.50;;;;;9.62;85.47;100561.50;5068153;28;10080;-67
2022/12/24 01:28:20;;;;;;;;;4.00;1.00;;;;;9.54;85.40;100554.41;5069339;28;10252;-67
2022/12/24 01:30:47;;;;;;;;;10.75;3.00;;;;;9.52;85.28;100563.69;5069831;28;9908;-66
2022/12/24 01:33:14;;;;;;;;;5.25;3.25;;;;;9.56;85.15;100567.66;5064584;28;10874;-66
2022/12/24 01:35:41;;;;;;;;;3.50;3.50;;;;;9.52;84.99;100571.75;5060128;28;10076;-66
2022/12/24 01:38:10;;;;;;;;;3.25;2.00;;;;;9.58;85.57;100585.25;5068509;28;10035;-65
2022/12/24 01:43:27;;;;;;;;;5.00;5.00;;;;;9.60;85.41;100580.53;5071031;28;10604;-65
2022/12/24 01:46:06;;;;;;;;;4.75;3.50;;;;;9.53;85.58;100574.25;5064992;28;9980;-66
2022/12/24 01:48:37;;;;;;;;;4.75;3.25;;;;;9.51;85.70;100583.53;5061189;28;9871;-66
2022/12/24 01:51:06;;;;;;;;;5.25;3.75;;;;;9.56;85.75;100581.94;5069035;28;10125;-66
2022/12/24 01:53:37;;;;;;;;;3.50;2.00;;;;;9.60;85.62;100588.59;5071975;28;9907;-65
2022/12/24 01:56:05;;;;;;;;;6.75;6.50;;;;;9.49;85.15;100589.09;5069366;28;9980;-65
2022/12/24 01:58:34;;;;;;;;;7.25;3.00;;;;;9.46;85.42;100588.66;5072302;28;9998;-66
2022/12/24 02:01:05;;;;;;;;;9.50;5.25;;;;;9.48;85.56;100581.22;5072736;28;10014;-66
2022/12/24 02:03:32;;;;;;;;;7.25;5.00;;;;;9.48;85.00;100583.91;5057586;28;10165;-67
2022/12/24 02:05:59;;;;;;;;;3.00;2.00;;;;;9.46;85.26;100597.53;5067552;28;10156;-66
2022/12/24 02:08:38;;;;;;;;;5.00;2.00;;;;;9.53;85.50;100597.63;5065736;28;10021;-65
2022/12/24 02:11:33;;;;;;;;;5.25;4.00;;;;;9.50;85.05;100608.75;5069143;28;10103;-66
2022/12/24 02:14:01;;;;;;;;;4.75;3.50;;;;;9.49;85.40;100609.78;5067959;28;10164;-65
2022/12/24 02:16:33;;;;;;;;;5.50;3.00;;;;;9.49;85.57;100623.22;5073135;28;10059;-66
2022/12/24 02:19:27;;;;;;;;;7.25;2.00;;;;;9.43;85.52;100626.66;5071772;28;10045;-66
2022/12/24 02:22:01;;;;;;;;;5.25;2.00;;;;;9.46;85.69;100620.91;5070898;28;10222;-66
2022/12/24 02:25:06;;;;;;;;;8.75;5.00;;;;;9.43;85.49;100627.47;5071639;28;10147;-66
2022/12/24 02:28:00;;;;;;;;;8.00;5.00;;;;;9.40;85.52;100626.03;5068056;28;10251;-67
2022/12/24 02:30:37;;;;;;;;;6.50;6.50;;;;;9.39;85.57;100628.88;5072732;28;10275;-65
2022/12/24 02:33:16;;;;;;;;;7.00;3.00;;;;;9.38;85.95;100636.13;5065232;28;10208;-66
2022/12/24 02:35:49;;;;;;;;;8.00;6.25;;;;;9.38;85.73;100635.28;5064741;28;11065;-66
2022/12/24 02:38:33;;;;;;;;;7.00;4.50;;;;;9.35;85.79;100649.91;5070351;28;10138;-65
2022/12/24 02:41:10;;;;;;;;;9.00;5.75;;;;;9.32;86.15;100652.19;5071166;28;10159;-67
2022/12/24 02:43:41;;;;;;;;;7.00;4.25;;;;;9.30;86.34;100652.34;5058820;28;10218;-65
2022/12/24 02:46:12;;;;;;;;;6.50;4.50;;;;;9.29;85.98;100650.69;5069949;28;10120;-67
2022/12/24 02:48:42;;;;;;;;;5.25;5.25;;;;;9.29;86.33;100650.69;5065334;28;10114;-66
2022/12/24 02:51:09;;;;;;;;;2.00;2.00;;;;;9.28;86.46;100659.78;5070625;28;10186;-66
2022/12/24 02:53:37;;;;;;;;;5.50;5.00;;;;;9.27;86.12;100658.09;5064270;28;9967;-66
2022/12/24 02:56:29;;;;;;;;;6.00;2.25;;;;;9.33;86.14;100661.91;5071620;28;9991;-66
2022/12/24 02:59:37;;;;;;;;;3.50;2.00;;;;;9.36;86.33;100669.59;5064793;28;10082;-68
2022/12/24 03:02:25;;;;;;;;;5.75;4.50;;;;;9.35;85.96;100679.47;5069071;28;10078;-65
2022/12/24 03:05:01;;;;;;;;;3.50;2.00;;;;;9.34;85.79;100679.66;5050389;28;10309;-67
2022/12/24 03:07:55;;;;;;;;;4.50;4.25;;;;;9.35;85.68;100684.00;5061779;28;9979;-66
2022/12/24 03:10:42;;;;;;;;;6.00;2.00;;;;;9.30;86.04;100673.00;5064778;28;10996;-66
2022/12/24 03:13:14;;;;;;;;;6.00;6.00;;;;;9.32;85.66;100679.88;5064178;28;10143;-66
2022/12/24 03:15:42;;;;;;;;;5.00;3.00;;;;;9.34;86.03;100685.88;5064002;28;10338;-66
2022/12/24 03:18:11;;;;;;;;;4.00;4.00;;;;;9.35;86.02;100682.16;5071075;28;10128;-65
2022/12/24 03:20:40;;;;;;;;;6.75;3.00;;;;;9.34;85.63;100693.09;5067478;28;10141;-66
2022/12/24 03:23:07;;;;;;;;;4.00;4.00;;;;;9.33;85.69;100684.22;5060492;28;10178;-65
2022/12/24 03:25:39;;;;;;;;;2.00;2.00;;;;;9.36;85.91;100688.38;5070711;28;10127;-67
2022/12/24 03:28:08;;;;;;;;;3.00;3.00;;;;;9.37;85.39;100690.03;5065670;28;10917;-69
2022/12/24 03:30:37;;;;;;;;;7.50;4.00;;;;;9.40;85.60;100684.31;5058897;28;10155;-65
2022/12/24 03:33:04;;;;;;;;;4.00;4.00;;;;;9.40;85.62;100685.13;5068425;28;9997;-66
2022/12/24 03:35:30;;;;;;;;;3.75;3.75;;;;;9.35;85.55;100686.69;5067681;28;10072;-65
2022/12/24 03:37:57;;;;;;;;;2.00;2.00;;;;;9.33;85.83;100699.50;5070294;28;10147;-67
2022/12/24 03:40:23;;;;;;;;;6.00;5.75;;;;;9.29;86.02;100701.72;5068007;28;9887;-65
2022/12/24 03:42:49;;;;;;;;;3.00;2.00;;;;;9.36;86.31;100693.75;5070457;28;10217;-68
2022/12/24 03:45:16;;;;;;;;;3.25;2.00;;;;;9.36;86.00;100704.50;5070394;28;9997;-66
2022/12/24 03:47:42;;;;;;;;;3.50;3.50;;;;;9.42;86.25;100698.34;5070416;28;10139;-64
2022/12/24 03:50:09;;;;;;;;;1.50;1.50;;;;;9.48;85.68;100694.06;5067300;28;10164;-66
2022/12/24 03:52:35;;;;;;;;;4.50;2.00;;;;;9.42;85.77;100698.34;5061948;28;10243;-66
2022/12/24 03:55:02;;;;;;;;;3.00;2.00;;;;;9.47;86.03;100698.59;5070487;28;10185;-65
2022/12/24 03:57:28;;;;;;;;;4.75;3.50;;;;;9.49;86.16;100698.44;5065772;28;10189;-64
2022/12/24 03:59:55;;;;;;;;;1.00;1.00;;;;;9.54;85.46;100706.75;5058461;28;10082;-65
2022/12/24 04:02:21;;;;;;;;;5.75;2.00;;;;;9.44;85.62;100695.47;5067608;28;9988;-66
2022/12/24 04:04:48;;;;;;;;;1.00;1.00;;;;;9.50;86.15;100700.09;5050247;28;10081;-66
2022/12/24 04:07:14;;;;;;;;;4.00;2.00;;;;;9.49;86.33;100712.69;5051817;28;10082;-66
2022/12/24 04:09:41;;;;;;;;;5.25;5.25;;;;;9.53;86.16;100705.09;5062779;28;10074;-66
2022/12/24 04:12:07;;;;;;;;;5.00;3.75;;;;;9.56;85.89;100710.94;5068019;28;10058;-66
2022/12/24 04:14:34;;;;;;;;;7.25;6.25;;;;;9.52;85.85;100708.78;5062026;28;10139;-65
2022/12/24 04:17:00;;;;;;;;;1.00;0.50;;;;;9.54;85.99;100712.13;5070319;28;10184;-66
2022/12/24 04:19:27;;;;;;;;;4.50;2.00;;;;;9.62;86.01;100720.06;5067328;28;10133;-65
2022/12/24 04:21:53;;;;;;;;;0.25;0.25;;;;;9.67;85.94;100717.63;5065291;28;10050;-66
2022/12/24 04:24:20;;;;;;;;;2.25;2.00;;;;;9.70;85.74;100725.31;5057669;28;9846;-67
2022/12/24 04:26:46;;;;;;;;;3.00;2.50;;;;;9.68;85.88;100732.72;5065390;28;9995;-67
2022/12/24 04:29:13;;;;;;;;;7.25;2.75;;;;;9.66;85.47;100735.63;5069917;28;10195;-66
2022/12/24 04:31:39;;;;;;;;;3.25;2.00;;;;;9.70;85.92;100728.00;5066079;28;10112;-66
2022/12/24 04:34:06;;;;;;;;;3.50;1.75;;;;;9.72;85.47;100731.31;5050519;28;10088;-66
2022/12/24 04:36:32;;;;;;;;;2.00;1.00;;;;;9.71;85.48;100723.47;5053193;28;10071;-66
2022/12/24 04:38:58;;;;;;;;;2.00;1.00;;;;;9.72;85.35;100731.31;5069851;28;10042;-67
2022/12/24 04:41:25;;;;;;;;;6.50;3.00;;;;;9.74;85.61;100734.66;5059214;28;9953;-66
2022/12/24 04:43:53;;;;;;;;;6.75;2.25;;;;;9.71;85.98;100739.59;5069650;28;10083;-67
2022/12/24 04:46:26;;;;;;;;;5.00;5.00;;;;;9.67;85.58;100739.13;5065749;28;10092;-66
2022/12/24 04:48:53;;;;;;;;;5.00;4.75;;;;;9.67;85.63;100741.81;5064893;28;10098;-67
2022/12/24 04:51:20;;;;;;;;;2.00;2.00;;;;;9.71;85.60;100735.03;5064188;28;9928;-67
2022/12/24 04:53:46;;;;;;;;;4.50;4.00;;;;;9.64;85.69;100735.00;5057760;28;9912;-66
2022/12/24 04:56:16;;;;;;;;;2.50;2.00;;;;;9.67;86.11;100744.50;5065947;28;10095;-67
2022/12/24 04:58:43;;;;;;;;;4.00;4.00;;;;;9.69;85.84;100747.84;5064117;28;10083;-67
2022/12/24 05:01:13;;;;;;;;;4.50;2.50;;;;;9.67;86.20;100747.19;5069958;28;10634;-67
2022/12/24 05:03:39;;;;;;;;;3.00;1.75;;;;;9.72;85.82;100747.44;5060823;28;9868;-67
2022/12/24 05:06:09;;;;;;;;;5.00;4.00;;;;;9.64;86.31;100752.94;5068813;28;9912;-67
2022/12/24 05:08:37;;;;;;;;;4.25;1.75;;;;;9.72;86.13;100750.13;5062361;28;9992;-67
2022/12/24 05:11:04;;;;;;;;;4.75;4.25;;;;;9.73;85.74;100757.19;5066547;28;10074;-67
2022/12/24 05:13:31;;;;;;;;;8.50;6.00;;;;;9.75;85.84;100751.63;5053987;28;10013;-65
2022/12/24 05:16:13;;;;;;;;;5.25;3.00;;;;;9.76;86.29;100743.34;5066481;28;10109;-66
2022/12/24 05:18:39;;;;;;;;;4.50;4.50;;;;;9.77;86.02;100744.22;5067325;28;10637;-67
2022/12/24 05:21:12;;;;;;;;;4.00;2.00;;;;;9.76;85.97;100748.72;5071344;28;9990;-66
2022/12/24 05:26:29;;;;;;;;;10.00;5.00;;;;;9.74;85.86;100750.78;5073472;28;9902;-67
2022/12/24 05:28:57;;;;;;;;;2.00;2.00;;;;;9.72;86.31;100757.38;5073006;28;10104;-66
2022/12/24 05:31:26;;;;;;;;;2.00;2.00;;;;;9.74;86.27;100752.66;5072135;28;9994;-65
2022/12/24 05:33:53;;;;;;;;;2.00;1.25;;;;;9.78;86.10;100762.81;5064060;28;9913;-67
2022/12/24 05:36:21;;;;;;;;;0.75;0.25;;;;;9.76;85.98;100759.47;5065390;28;9762;-66
2022/12/24 05:38:48;;;;;;;;;5.00;3.50;;;;;9.75;85.84;100763.19;5053487;28;10544;-67
2022/12/24 05:41:15;;;;;;;;;1.75;1.50;;;;;9.73;85.98;100767.94;5053489;28;10692;-67
2022/12/24 05:43:42;;;;;;;;;1.25;1.25;;;;;9.74;86.22;100763.41;5065506;28;9958;-66
2022/12/24 05:46:11;;;;;;;;;2.00;2.00;;;;;9.71;86.14;100769.16;5072052;28;10120;-66
2022/12/24 05:48:38;;;;;;;;;11.00;5.00;;;;;9.63;86.73;100762.88;5066003;28;10002;-68
2022/12/24 05:51:07;;;;;;;;;1.00;1.00;;;;;9.68;86.55;100770.34;5071976;28;10071;-66
2022/12/24 05:53:34;;;;;;;;;5.00;4.25;;;;;9.73;86.71;100776.00;5070421;28;9950;-67
2022/12/24 05:56:03;;;;;;;;;2.00;2.00;;;;;9.75;86.56;100773.13;5072883;28;10162;-67
2022/12/24 05:58:30;;;;;;;;;5.50;3.00;;;;;9.75;86.32;100768.56;5070825;28;9868;-67
2022/12/24 06:00:56;;;;;;;;;5.00;2.75;;;;;9.76;86.72;100769.41;5064100;28;10175;-66
2022/12/24 06:03:23;;;;;;;;;10.50;5.25;;;;;9.72;86.62;100774.31;5072346;28;9976;-66
2022/12/24 06:05:58;;;;;;;;;4.25;3.00;;;;;9.74;86.10;100777.66;5071523;28;10706;-65
2022/12/24 06:08:25;;;;;;;;;5.50;4.50;;;;;9.73;86.62;100781.41;5071689;28;10050;-65
2022/12/24 06:11:00;;;;;;;;;7.25;2.25;;;;;9.73;86.19;100781.41;5067820;28;9828;-67
2022/12/24 06:13:27;;;;;;;;;6.25;5.00;;;;;9.76;86.73;100790.91;5072138;28;9842;-64
2022/12/24 06:15:57;;;;;;;;;6.50;5.00;;;;;9.71;86.46;100783.41;5071874;28;9939;-66
2022/12/24 06:18:24;;;;;;;;;5.25;4.25;;;;;9.73;86.36;100791.31;5068196;28;9959;-67
2022/12/24 06:20:55;;;;;;;;;3.50;3.00;;;;;9.72;86.37;100793.16;5072164;28;10070;-66
2022/12/24 06:23:22;;;;;;;;;1.00;1.00;;;;;9.75;86.24;100794.63;5071958;28;10031;-66
2022/12/24 06:25:50;;;;;;;;;6.00;3.50;;;;;9.68;86.02;100801.78;5072223;28;10012;-67
2022/12/24 06:28:17;;;;;;;;;4.00;2.00;;;;;9.71;86.46;100804.94;5067004;28;9990;-67
2022/12/24 06:30:48;;;;;;;;;6.25;4.25;;;;;9.71;86.32;100801.41;5065279;28;9990;-66
2022/12/24 06:33:18;;;;;;;;;10.00;6.00;;;;;9.62;86.23;100800.69;5057350;28;10063;-66
2022/12/24 06:35:45;;;;;;;;;4.75;4.00;;;;;9.68;86.53;100799.91;5054897;28;9950;-66
2022/12/24 06:38:13;;;;;;;;;4.50;4.00;;;;;9.71;86.09;100809.47;5068464;28;9859;-67
2022/12/24 06:40:41;;;;;;;;;6.00;4.00;;;;;9.70;85.85;100808.63;5072248;28;10022;-66
2022/12/24 06:43:08;;;;;;;;;3.00;1.00;;;;;9.68;86.28;100809.84;5063435;28;9968;-67
2022/12/24 06:45:35;;;;;;;;;5.00;3.25;;;;;9.63;85.92;100808.56;5058569;28;9912;-67
2022/12/24 06:48:02;;;;;;;;;9.75;4.75;;;;;9.57;86.21;100813.88;5066787;28;10015;-66
2022/12/24 06:50:28;;;;;;;;;5.50;5.50;;;;;9.62;85.97;100819.50;5072206;28;10004;-67
2022/12/24 06:52:55;;;;;;;;;7.00;4.00;;;;;9.64;85.91;100814.75;5071652;28;9825;-66
2022/12/24 06:55:21;;;;;;;;;3.25;3.25;;;;;9.68;85.96;100815.22;5066580;28;10058;-65
2022/12/24 06:57:48;;;;;;;;;2.25;2.25;;;;;9.73;86.08;100820.88;5069265;28;9998;-65
2022/12/24 07:00:15;;;;;;;;;5.75;3.00;;;;;9.73;85.58;100824.41;5067935;28;10090;-66
2022/12/24 07:02:42;;;;;;;;;2.00;2.00;;;;;9.70;85.64;100814.03;5070609;28;10621;-67
2022/12/24 07:05:10;;;;;;;;;6.50;2.75;;;;;9.72;85.82;100817.34;5066871;28;10034;-67
2022/12/24 07:07:39;;;;;;;;;1.75;1.75;;;;;9.76;85.74;100826.69;5071265;28;9973;-67
2022/12/24 07:10:07;;;;;;;;;5.00;3.75;;;;;9.76;85.34;100823.16;5071806;28;10103;-65
2022/12/24 07:12:34;;;;;;;;;1.75;1.75;;;;;9.80;84.99;100835.22;5067244;28;10046;-65
2022/12/24 07:15:00;;;;;;;;;5.75;4.75;;;;;9.78;84.99;100835.41;5065652;28;9968;-66
2022/12/24 07:17:27;;;;;;;;;4.25;2.00;;;;;9.75;84.89;100840.31;5052234;28;10017;-66
2022/12/24 07:19:53;;;;;;;;;7.25;3.00;;;;;9.75;85.08;100840.31;5052723;28;9924;-66
2022/12/24 07:22:20;;;;;;;;;5.75;3.00;;;;;9.77;85.01;100836.44;5054820;28;10058;-65
2022/12/24 07:24:47;;;;;;;;;4.50;3.50;;;;;9.79;84.83;100853.19;5070347;28;9992;-66
2022/12/24 07:27:13;;;;;;;;;6.25;3.25;;;;;9.68;85.28;100836.72;5066645;28;10036;-66
2022/12/24 07:29:40;;;;;;;;;5.25;3.00;;;;;9.71;84.99;100856.00;5070457;28;10101;-66
2022/12/24 07:32:07;;;;;;;;;10.00;5.00;;;;;9.74;85.19;100847.56;5062985;28;10002;-65
2022/12/24 07:34:33;;;;;;;;;6.50;3.50;;;;;9.76;84.79;100858.94;5069269;28;10057;-66
2022/12/24 07:37:00;;;;;;;;;9.25;4.50;;;;;9.71;84.72;100865.91;5070669;28;9912;-67
2022/12/24 07:39:27;;;;;;;;;4.75;2.25;;;;;9.73;84.73;100877.34;5054021;28;10087;-66
2022/12/24 07:41:53;;;;;;;;;5.25;2.75;;;;;9.75;84.98;100883.34;5058092;28;9910;-67
2022/12/24 07:44:20;;;;;;;;;2.50;2.25;;;;;9.70;84.96;100877.69;5068097;28;9946;-67
2022/12/24 07:46:46;;;;;;;;;4.75;2.00;;;;;9.70;84.84;100889.28;5056492;28;9977;-66
2022/12/24 07:49:12;;;;;;;;;7.75;4.50;;;;;9.63;85.61;100899.09;5059918;28;9703;-67
2022/12/24 07:51:39;;;;;;;;;10.00;5.00;;;;;9.61;85.07;100899.31;5070758;28;9873;-66
2022/12/24 07:54:05;;;;;;;;;7.25;4.00;;;;;9.59;85.18;100904.00;5069718;28;10007;-66
2022/12/24 07:56:32;;;;;;;;;5.00;5.00;;;;;9.59;85.36;100914.75;5063232;28;10066;-65
2022/12/24 07:58:59;;;;;;;;;2.00;2.00;;;;;9.71;85.43;100912.44;5060535;28;10065;-66
2022/12/24 08:01:25;;;;;;;;;4.25;4.00;;;;;9.75;84.58;100908.38;5067632;28;10048;-65
2022/12/24 08:03:53;;;;;;;;;4.75;4.75;;;;;9.72;85.13;100919.47;5059113;28;10676;-66
2022/12/24 08:06:21;;;;;;;;;8.50;5.00;;;;;9.64;85.19;100930.31;5068337;28;9924;-66
2022/12/24 08:08:48;;;;;;;;;6.25;4.75;;;;;9.70;84.79;100926.91;5069846;28;10984;-67
2022/12/24 08:11:15;;;;;;;;;6.50;4.50;;;;;9.76;84.41;100936.06;5070431;28;10637;-68
2022/12/24 08:13:42;;;;;;;;;2.50;2.50;;;;;9.72;84.94;100938.28;5058198;28;10607;-65
2022/12/24 08:16:08;;;;;;;;;10.75;6.25;;;;;9.64;84.80;100943.75;5065717;28;9923;-67
2022/12/24 08:18:35;;;;;;;;;5.75;2.00;;;;;9.70;84.87;100942.22;5058492;28;10014;-67
2022/12/24 08:21:01;;;;;;;;;5.00;2.25;;;;;9.76;84.43;100949.50;5050360;28;9975;-67
2022/12/24 08:23:28;;;;;;;;;5.75;5.00;;;;;9.72;84.36;100951.75;5053781;28;9922;-66
2022/12/24 08:25:54;;;;;;;;;7.50;1.75;;;;;9.73;84.63;100950.75;5066232;28;9721;-66
2022/12/24 08:28:21;;;;;;;;;5.25;2.00;;;;;9.77;84.10;100970.03;5067839;28;10000;-67
2022/12/24 08:30:49;;;;;;;;;2.50;1.75;;;;;9.75;84.65;100966.66;5055776;28;9846;-67
2022/12/24 08:33:16;;;;;;;;;4.25;2.50;;;;;9.73;84.33;100966.88;5051230;28;9821;-66
2022/12/24 08:35:50;;;;;;;;;8.00;4.00;;;;;9.69;84.62;100984.38;5068888;28;9834;-66
2022/12/24 08:38:16;;;;;;;;;10.75;8.00;;;;;9.74;84.44;100978.44;5069696;28;10032;-65
2022/12/24 08:40:43;;;;;;;;;5.25;2.00;;;;;9.75;84.38;100972.03;5070260;28;9932;-66
2022/12/24 08:43:10;;;;;;;;;2.25;2.00;;;;;9.81;83.97;100988.28;5061387;28;10520;-66
2022/12/24 08:45:38;;;;;;;;;5.00;1.50;;;;;9.87;83.85;100992.91;5066172;28;9749;-66
2022/12/24 08:48:08;;;;;;;;;7.00;4.50;;;;;9.88;83.99;100988.34;5062954;28;9736;-66
2022/12/24 08:50:37;;;;;;;;;5.25;1.00;;;;;9.90;83.71;100991.72;5064841;28;9966;-66
2022/12/24 08:53:03;;;;;;;;;4.50;2.50;;;;;9.87;83.75;101002.81;5073158;28;10656;-66
2022/12/24 08:55:30;;;;;;;;;4.25;2.00;;;;;9.84;83.89;100998.66;5072577;28;9847;-67
2022/12/24 08:57:57;;;;;;;;;6.50;2.00;;;;;9.85;84.01;101003.03;5062862;28;9818;-67
2022/12/24 09:00:23;;;;;;;;;5.00;1.50;;;;;9.83;84.11;101002.34;5074268;28;9917;-66
2022/12/24 09:02:50;;;;;;;;;5.00;4.00;;;;;9.84;83.79;101012.13;5064857;28;9818;-66
2022/12/24 09:05:17;;;;;;;;;7.25;3.00;;;;;9.83;83.73;101023.88;5069804;28;9839;-67
2022/12/24 09:07:43;;;;;;;;;4.25;3.00;;;;;9.85;84.12;101026.38;5069240;28;9826;-66
2022/12/24 09:10:10;;;;;;;;;4.50;4.50;;;;;9.89;83.87;101033.91;5063438;28;9831;-66
2022/12/24 09:12:37;;;;;;;;;6.75;5.00;;;;;9.87;84.09;101021.66;5070652;28;9823;-67
2022/12/24 09:15:06;;;;;;;;;7.50;4.00;;;;;9.86;84.01;101031.56;5063063;28;10524;-67
2022/12/24 09:17:34;;;;;;;;;8.50;2.75;;;;;9.89;83.75;101027.69;5065897;28;9835;-65
2022/12/24 09:20:02;;;;;;;;;8.75;2.00;;;;;9.85;84.39;101039.84;5065372;28;9764;-67
2022/12/24 09:22:29;;;;;;;;;5.75;4.75;;;;;9.86;84.07;101039.63;5060975;28;9740;-67
2022/12/24 09:24:55;;;;;;;;;2.00;2.00;;;;;9.89;84.22;101050.03;5067764;28;10596;-65
2022/12/24 09:27:22;;;;;;;;;4.50;2.00;;;;;9.93;84.00;101052.34;5070260;28;9708;-66
2022/12/24 09:29:48;;;;;;;;;9.25;4.50;;;;;9.87;84.16;101053.91;5053434;28;9952;-67
2022/12/24 09:32:15;;;;;;;;;4.25;3.75;;;;;9.82;84.08;101054.47;5066111;28;9727;-67
2022/12/24 09:34:42;;;;;;;;;8.00;5.50;;;;;9.89;83.93;101059.94;5068456;28;9919;-67
2022/12/24 09:37:08;;;;;;;;;7.75;3.00;;;;;9.87;83.80;101065.50;5056806;28;9911;-67
2022/12/24 09:39:34;;;;;;;;;3.25;3.25;;;;;9.94;84.00;101075.53;5059626;28;9855;-66
2022/12/24 09:42:29;;;;;;;;;6.50;4.00;;;;;10.01;83.86;101081.84;5053176;28;9932;-66
2022/12/24 09:45:06;;;;;;;;;9.00;4.00;;;;;9.96;83.65;101081.53;5088843;28;9891;-67
2022/12/24 09:47:49;;;;;;;;;5.50;2.50;;;;;9.94;83.50;101083.59;5083308;28;9896;-69
2022/12/24 09:50:43;;;;;;;;;4.00;2.25;;;;;9.90;83.79;101088.50;5053901;28;9847;-67
2022/12/24 09:53:19;;;;;;;;;6.50;4.25;;;;;9.87;84.04;101086.19;5060990;28;9773;-66
2022/12/24 09:55:50;;;;;;;;;10.00;2.50;;;;;9.92;83.67;101081.06;5067550;28;9732;-67
2022/12/24 09:58:46;;;;;;;;;11.00;4.00;;;;;10.01;84.23;101085.38;5070035;28;10620;-65
2022/12/24 10:01:15;;;;;;;;;7.75;7.50;;;;;9.99;83.19;101081.19;5072834;28;9884;-66
2022/12/24 10:03:42;;;;;;;;;2.00;2.00;;;;;10.00;83.63;101085.53;5059180;28;9996;-65
2022/12/24 10:06:15;;;;;;;;;7.00;5.00;;;;;9.94;83.32;101088.97;5062962;28;9902;-70
2022/12/24 10:08:48;;;;;;;;;6.00;4.25;;;;;9.97;83.44;101099.38;5068633;28;9839;-65
2022/12/24 10:11:22;;;;;;;;;5.00;3.50;;;;;10.00;83.39;101099.81;5067115;28;9846;-66
2022/12/24 10:13:56;;;;;;;;;3.75;3.25;;;;;10.07;83.21;101091.84;5067262;28;9756;-67
2022/12/24 10:16:32;;;;;;;;;4.75;2.25;;;;;10.13;83.57;101100.03;5072543;28;10632;-67
2022/12/24 10:19:03;;;;;;;;;4.75;3.75;;;;;10.08;82.94;101096.19;5070034;28;10012;-66
2022/12/24 10:21:57;;;;;;;;;7.00;2.50;;;;;10.06;82.38;101093.72;5064603;28;9907;-66
2022/12/24 10:24:44;;;;;;;;;2.25;2.25;;;;;10.11;82.30;101102.06;5062117;28;9832;-67
2022/12/24 10:27:20;;;;;;;;;1.00;1.00;;;;;10.10;82.40;101100.38;5069931;28;9821;-66
2022/12/24 10:29:57;;;;;;;;;5.75;5.00;;;;;10.14;82.62;101090.94;5067193;28;9919;-66
2022/12/24 10:32:33;;;;;;;;;7.25;4.00;;;;;10.10;82.22;101100.38;5063324;28;9843;-67
2022/12/24 10:35:25;;;;;;;;;3.25;2.50;;;;;10.07;82.45;101097.22;5059903;28;9848;-66
2022/12/24 10:37:52;;;;;;;;;4.00;3.50;;;;;10.05;82.96;101096.59;5061736;28;10045;-65
2022/12/24 10:40:40;;;;;;;;;6.75;5.50;;;;;10.03;82.75;101106.69;5061499;28;9973;-65
2022/12/24 10:43:15;;;;;;;;;2.75;2.75;;;;;9.99;83.20;101097.31;5060922;28;9854;-67
2022/12/24 10:45:54;;;;;;;;;4.00;2.00;;;;;10.03;83.05;101106.69;5059713;28;9905;-68
2022/12/24 10:48:31;;;;;;;;;7.25;2.50;;;;;10.11;82.82;101107.44;5061934;28;10372;-66
2022/12/24 10:51:04;;;;;;;;;5.25;3.00;;;;;10.18;82.82;101110.22;5053941;28;9762;-66
2022/12/24 10:53:40;;;;;;;;;5.25;3.25;;;;;10.20;82.63;101112.72;5061388;28;9875;-65
2022/12/24 10:56:11;;;;;;;;;5.25;2.00;;;;;10.25;82.88;101115.72;5062402;28;9827;-65
2022/12/24 10:58:50;;;;;;;;;4.25;2.25;;;;;10.27;82.39;101124.44;5058649;28;9757;-66
2022/12/24 11:01:16;;;;;;;;;5.50;4.75;;;;;10.30;82.38;101126.78;5057522;28;9761;-65
2022/12/24 11:03:43;;;;;;;;;6.25;4.00;;;;;10.28;82.41;101136.88;5065048;28;9817;-67
2022/12/24 11:06:14;;;;;;;;;6.75;5.00;;;;;10.25;82.31;101138.09;5052790;28;9790;-66
2022/12/24 11:08:43;;;;;;;;;2.00;1.75;;;;;10.22;82.31;101126.84;5056048;28;9947;-67
2022/12/24 11:11:16;;;;;;;;;7.50;2.00;;;;;10.26;82.03;101131.69;5062620;28;10020;-66
2022/12/24 11:14:00;;;;;;;;;4.00;4.00;;;;;10.36;82.10;101145.69;5061425;28;9848;-68
2022/12/24 11:16:32;;;;;;;;;2.00;2.00;;;;;10.42;81.81;101133.38;5058192;28;9920;-68
2022/12/24 11:19:02;;;;;;;;;3.75;2.00;;;;;10.46;81.44;101144.59;5068208;28;9729;-67
2022/12/24 11:21:32;;;;;;;;;4.00;2.75;;;;;10.40;81.18;101138.91;5068762;28;9959;-67
2022/12/24 11:24:12;;;;;;;;;2.00;2.00;;;;;10.36;81.12;101137.63;5070928;28;10642;-68
2022/12/24 11:26:41;;;;;;;;;1.00;1.00;;;;;10.37;80.80;101136.63;5056850;28;9695;-68
2022/12/24 11:29:21;;;;;;;;;4.00;4.00;;;;;10.42;81.07;101141.44;5063954;28;9910;-67
2022/12/24 11:31:48;;;;;;;;;1.50;1.25;;;;;10.46;80.86;101140.06;5063766;28;9824;-66
2022/12/24 11:34:26;;;;;;;;;4.25;4.00;;;;;10.38;80.59;101134.75;5062381;28;9851;-68
2022/12/24 11:36:55;;;;;;;;;3.00;1.75;;;;;10.42;80.61;101135.22;5067958;28;10562;-67
2022/12/24 11:39:24;;;;;;;;;3.00;1.00;;;;;10.40;80.60;101140.78;5051397;28;9664;-67
2022/12/24 11:41:53;;;;;;;;;9.00;2.00;;;;;10.39;80.73;101147.19;5064240;28;9798;-69
2022/12/24 11:44:25;;;;;;;;;1.75;1.75;;;;;10.36;80.32;101145.69;5058042;28;9724;-67
2022/12/24 11:46:55;;;;;;;;;1.00;1.00;;;;;10.31;80.38;101142.72;5061583;28;9817;-69
2022/12/24 11:49:30;;;;;;;;;2.00;2.00;;;;;10.36;80.48;101150.25;5065717;28;10520;-67
2022/12/24 11:52:15;;;;;;;;;2.00;1.50;;;;;10.27;80.21;101156.75;5063025;28;9668;-67
2022/12/24 11:54:48;;;;;;;;;3.75;2.00;;;;;10.27;80.41;101149.50;5050351;28;9747;-67
2022/12/24 11:57:19;;;;;;;;;2.25;1.50;;;;;10.24;80.29;101147.13;5060036;28;9590;-68